Yucca, Arizona
Current Conditions -  °F | °C
As of 3:15 AM on Saturday 01 Nov 2014 (Local Time) from KHII Reporting Station
Overcast Overcast  
Wind Chill: 72°   Ceiling: 5000
Heat Index: 72°   Visibility: 10mi
Dew Point: 57°   Wind: 16mph
Humidity: 60%   Direction: 140°SE
Pressure: 29.75"   Gusts: NA
Location:  34.87°N, 114.15°W
Report Text: KHII 011015Z AUTO 14014KT 10SM OVC050 22/14 A2975 RMK AO2
Loading
Personal Weather Stations






























Interactive Weather Map
Tropical Storm Tracking
New forecast layout! Learn more

10-Day Weather Forecast

Advertisements
Track Severe Weather on mobile